sensor_id;sensor_type;location;lat;lon;timestamp;P1;durP1;ratioP1;P2;durP2;ratioP2
12758;SDS011;20944;47.048;15.390;2022-08-03T00:01:53;2.42;;;2.08;;
12758;SDS011;20944;47.048;15.390;2022-08-03T00:04:21;3.38;;;2.30;;
12758;SDS011;20944;47.048;15.390;2022-08-03T00:06:59;2.42;;;2.22;;
12758;SDS011;20944;47.048;15.390;2022-08-03T00:09:27;2.30;;;2.15;;
12758;SDS011;20944;47.048;15.390;2022-08-03T00:12:01;1.70;;;1.60;;
12758;SDS011;20944;47.048;15.390;2022-08-03T00:14:31;1.95;;;1.85;;
12758;SDS011;20944;47.048;15.390;2022-08-03T00:16:59;2.40;;;2.05;;
12758;SDS011;20944;47.048;15.390;2022-08-03T00:19:27;2.20;;;2.10;;
12758;SDS011;20944;47.048;15.390;2022-08-03T00:21:55;2.50;;;2.30;;
12758;SDS011;20944;47.048;15.390;2022-08-03T00:24:24;2.55;;;2.35;;
12758;SDS011;20944;47.048;15.390;2022-08-03T00:26:52;2.20;;;2.00;;
12758;SDS011;20944;47.048;15.390;2022-08-03T00:29:20;2.50;;;2.30;;
12758;SDS011;20944;47.048;15.390;2022-08-03T00:31:50;2.15;;;2.03;;
12758;SDS011;20944;47.048;15.390;2022-08-03T00:34:25;2.38;;;2.17;;
12758;SDS011;20944;47.048;15.390;2022-08-03T00:37:14;2.08;;;1.88;;
12758;SDS011;20944;47.048;15.390;2022-08-03T00:39:42;2.72;;;1.88;;
12758;SDS011;20944;47.048;15.390;2022-08-03T00:42:12;2.60;;;2.30;;
12758;SDS011;20944;47.048;15.390;2022-08-03T00:44:42;2.80;;;2.35;;
12758;SDS011;20944;47.048;15.390;2022-08-03T00:47:12;2.50;;;2.30;;
12758;SDS011;20944;47.048;15.390;2022-08-03T00:49:40;2.08;;;1.88;;
12758;SDS011;20944;47.048;15.390;2022-08-03T00:52:09;4.03;;;2.25;;
12758;SDS011;20944;47.048;15.390;2022-08-03T00:54:40;2.42;;;2.22;;
12758;SDS011;20944;47.048;15.390;2022-08-03T00:57:08;2.63;;;2.35;;
12758;SDS011;20944;47.048;15.390;2022-08-03T00:59:37;2.65;;;2.25;;
12758;SDS011;20944;47.048;15.390;2022-08-03T01:02:05;2.25;;;2.15;;
12758;SDS011;20944;47.048;15.390;2022-08-03T01:04:35;2.80;;;2.28;;
12758;SDS011;20944;47.048;15.390;2022-08-03T01:07:05;2.25;;;2.05;;
12758;SDS011;20944;47.048;15.390;2022-08-03T01:09:40;3.35;;;2.05;;
12758;SDS011;20944;47.048;15.390;2022-08-03T01:12:16;2.03;;;1.92;;
12758;SDS011;20944;47.048;15.390;2022-08-03T01:14:50;3.47;;;2.20;;
12758;SDS011;20944;47.048;15.390;2022-08-03T01:17:24;2.10;;;1.98;;
12758;SDS011;20944;47.048;15.390;2022-08-03T01:20:00;3.03;;;2.28;;
12758;SDS011;20944;47.048;15.390;2022-08-03T01:25:49;2.60;;;1.95;;
12758;SDS011;20944;47.048;15.390;2022-08-03T01:28:38;1.83;;;1.73;;
12758;SDS011;20944;47.048;15.390;2022-08-03T01:31:20;2.60;;;2.40;;
12758;SDS011;20944;47.048;15.390;2022-08-03T01:33:54;2.42;;;2.22;;
12758;SDS011;20944;47.048;15.390;2022-08-03T01:36:28;2.10;;;1.88;;
12758;SDS011;20944;47.048;15.390;2022-08-03T01:38:59;2.17;;;1.98;;
12758;SDS011;20944;47.048;15.390;2022-08-03T01:41:29;3.97;;;2.10;;
12758;SDS011;20944;47.048;15.390;2022-08-03T01:44:00;2.72;;;2.38;;
12758;SDS011;20944;47.048;15.390;2022-08-03T01:46:52;2.70;;;2.13;;
12758;SDS011;20944;47.048;15.390;2022-08-03T01:49:22;4.13;;;2.42;;
12758;SDS011;20944;47.048;15.390;2022-08-03T01:51:52;2.42;;;2.22;;
12758;SDS011;20944;47.048;15.390;2022-08-03T01:54:30;3.05;;;2.17;;
12758;SDS011;20944;47.048;15.390;2022-08-03T01:57:02;3.20;;;2.30;;
12758;SDS011;20944;47.048;15.390;2022-08-03T01:59:32;4.13;;;2.33;;
12758;SDS011;20944;47.048;15.390;2022-08-03T02:02:04;4.38;;;2.10;;
12758;SDS011;20944;47.048;15.390;2022-08-03T02:04:54;2.45;;;1.95;;
12758;SDS011;20944;47.048;15.390;2022-08-03T02:07:24;3.40;;;1.95;;
12758;SDS011;20944;47.048;15.390;2022-08-03T02:09:55;2.33;;;2.13;;
12758;SDS011;20944;47.048;15.390;2022-08-03T02:12:27;2.47;;;2.25;;
12758;SDS011;20944;47.048;15.390;2022-08-03T02:14:56;2.00;;;1.88;;
12758;SDS011;20944;47.048;15.390;2022-08-03T02:17:28;2.13;;;2.03;;
12758;SDS011;20944;47.048;15.390;2022-08-03T02:20:06;2.65;;;2.45;;
12758;SDS011;20944;47.048;15.390;2022-08-03T02:22:38;3.10;;;2.42;;
12758;SDS011;20944;47.048;15.390;2022-08-03T02:25:08;2.25;;;2.15;;
12758;SDS011;20944;47.048;15.390;2022-08-03T02:27:37;3.90;;;2.15;;
12758;SDS011;20944;47.048;15.390;2022-08-03T02:30:09;3.17;;;1.80;;
12758;SDS011;20944;47.048;15.390;2022-08-03T02:32:43;2.97;;;2.35;;
12758;SDS011;20944;47.048;15.390;2022-08-03T02:35:18;4.18;;;2.17;;
12758;SDS011;20944;47.048;15.390;2022-08-03T02:37:51;2.50;;;2.30;;
12758;SDS011;20944;47.048;15.390;2022-08-03T02:40:22;3.88;;;2.50;;
12758;SDS011;20944;47.048;15.390;2022-08-03T02:42:54;2.17;;;2.08;;
12758;SDS011;20944;47.048;15.390;2022-08-03T02:45:25;2.50;;;2.35;;
12758;SDS011;20944;47.048;15.390;2022-08-03T02:47:58;2.05;;;1.95;;
12758;SDS011;20944;47.048;15.390;2022-08-03T02:50:29;2.28;;;2.17;;
12758;SDS011;20944;47.048;15.390;2022-08-03T02:53:00;2.33;;;2.17;;
12758;SDS011;20944;47.048;15.390;2022-08-03T02:55:30;7.13;;;2.50;;
12758;SDS011;20944;47.048;15.390;2022-08-03T02:58:08;2.47;;;2.30;;
12758;SDS011;20944;47.048;15.390;2022-08-03T03:00:39;2.72;;;2.53;;
12758;SDS011;20944;47.048;15.390;2022-08-03T03:03:12;2.50;;;2.33;;
12758;SDS011;20944;47.048;15.390;2022-08-03T03:05:41;2.85;;;2.20;;
12758;SDS011;20944;47.048;15.390;2022-08-03T03:08:23;2.20;;;2.10;;
12758;SDS011;20944;47.048;15.390;2022-08-03T03:10:54;2.65;;;2.35;;
12758;SDS011;20944;47.048;15.390;2022-08-03T03:13:23;2.58;;;2.17;;
12758;SDS011;20944;47.048;15.390;2022-08-03T03:15:53;2.55;;;2.35;;
12758;SDS011;20944;47.048;15.390;2022-08-03T03:18:28;2.50;;;2.30;;
12758;SDS011;20944;47.048;15.390;2022-08-03T03:20:58;2.63;;;1.83;;
12758;SDS011;20944;47.048;15.390;2022-08-03T03:23:28;2.72;;;2.53;;
12758;SDS011;20944;47.048;15.390;2022-08-03T03:25:59;2.45;;;2.25;;
12758;SDS011;20944;47.048;15.390;2022-08-03T03:28:28;2.30;;;2.15;;
12758;SDS011;20944;47.048;15.390;2022-08-03T05:37:10;3.60;;;3.30;;
12758;SDS011;20944;47.048;15.390;2022-08-03T05:39:38;5.15;;;3.03;;
12758;SDS011;20944;47.048;15.390;2022-08-03T05:42:06;4.10;;;3.35;;
12758;SDS011;20944;47.048;15.390;2022-08-03T05:44:37;3.72;;;3.08;;
12758;SDS011;20944;47.048;15.390;2022-08-03T05:47:06;3.80;;;3.40;;
12758;SDS011;20944;47.048;15.390;2022-08-03T05:49:35;4.93;;;3.40;;
12758;SDS011;20944;47.048;15.390;2022-08-03T05:52:03;3.95;;;3.38;;
12758;SDS011;20944;47.048;15.390;2022-08-03T05:54:43;3.58;;;3.28;;
12758;SDS011;20944;47.048;15.390;2022-08-03T05:57:23;3.67;;;3.38;;
12758;SDS011;20944;47.048;15.390;2022-08-03T05:59:53;5.97;;;3.97;;
12758;SDS011;20944;47.048;15.390;2022-08-03T06:02:24;7.15;;;3.38;;
12758;SDS011;20944;47.048;15.390;2022-08-03T06:04:52;6.22;;;3.17;;
12758;SDS011;20944;47.048;15.390;2022-08-03T06:07:21;3.90;;;3.60;;
12758;SDS011;20944;47.048;15.390;2022-08-03T06:09:49;3.55;;;3.30;;
12758;SDS011;20944;47.048;15.390;2022-08-03T06:12:38;3.40;;;3.10;;
12758;SDS011;20944;47.048;15.390;2022-08-03T06:15:08;3.33;;;3.03;;
12758;SDS011;20944;47.048;15.390;2022-08-03T06:17:46;3.88;;;3.35;;
12758;SDS011;20944;47.048;15.390;2022-08-03T06:20:16;4.05;;;3.58;;
12758;SDS011;20944;47.048;15.390;2022-08-03T06:22:45;4.82;;;3.30;;
12758;SDS011;20944;47.048;15.390;2022-08-03T06:25:16;4.10;;;3.22;;
12758;SDS011;20944;47.048;15.390;2022-08-03T06:27:46;4.13;;;3.35;;
12758;SDS011;20944;47.048;15.390;2022-08-03T06:30:16;3.92;;;3.00;;
12758;SDS011;20944;47.048;15.390;2022-08-03T06:32:47;5.68;;;3.60;;
12758;SDS011;20944;47.048;15.390;2022-08-03T06:35:18;4.18;;;3.17;;
12758;SDS011;20944;47.048;15.390;2022-08-03T06:37:47;3.80;;;3.50;;
12758;SDS011;20944;47.048;15.390;2022-08-03T06:40:18;3.25;;;2.75;;
12758;SDS011;20944;47.048;15.390;2022-08-03T06:42:54;4.90;;;3.25;;
12758;SDS011;20944;47.048;15.390;2022-08-03T06:45:24;5.00;;;3.35;;
12758;SDS011;20944;47.048;15.390;2022-08-03T06:48:01;3.47;;;3.17;;
12758;SDS011;20944;47.048;15.390;2022-08-03T06:50:30;3.30;;;3.08;;
12758;SDS011;20944;47.048;15.390;2022-08-03T06:52:59;3.05;;;2.80;;
12758;SDS011;20944;47.048;15.390;2022-08-03T06:55:27;8.75;;;2.80;;
12758;SDS011;20944;47.048;15.390;2022-08-03T06:57:55;2.70;;;2.50;;
12758;SDS011;20944;47.048;15.390;2022-08-03T07:00:30;2.88;;;2.67;;
12758;SDS011;20944;47.048;15.390;2022-08-03T07:02:58;4.43;;;2.45;;
12758;SDS011;20944;47.048;15.390;2022-08-03T07:05:27;2.60;;;2.47;;
12758;SDS011;20944;47.048;15.390;2022-08-03T07:07:56;4.28;;;2.85;;
12758;SDS011;20944;47.048;15.390;2022-08-03T07:10:24;3.03;;;2.78;;
12758;SDS011;20944;47.048;15.390;2022-08-03T07:12:53;2.50;;;2.30;;
12758;SDS011;20944;47.048;15.390;2022-08-03T07:15:22;2.30;;;2.00;;
12758;SDS011;20944;47.048;15.390;2022-08-03T07:18:12;2.63;;;2.22;;
12758;SDS011;20944;47.048;15.390;2022-08-03T07:20:40;2.45;;;2.08;;
12758;SDS011;20944;47.048;15.390;2022-08-03T07:23:08;2.50;;;2.30;;
12758;SDS011;20944;47.048;15.390;2022-08-03T07:25:44;2.60;;;2.40;;
12758;SDS011;20944;47.048;15.390;2022-08-03T07:28:13;2.25;;;2.05;;
12758;SDS011;20944;47.048;15.390;2022-08-03T07:30:41;2.20;;;2.10;;
12758;SDS011;20944;47.048;15.390;2022-08-03T07:33:09;2.00;;;1.90;;
12758;SDS011;20944;47.048;15.390;2022-08-03T07:35:39;2.03;;;1.92;;
12758;SDS011;20944;47.048;15.390;2022-08-03T07:38:07;2.22;;;2.03;;
12758;SDS011;20944;47.048;15.390;2022-08-03T07:40:36;4.28;;;2.50;;
12758;SDS011;20944;47.048;15.390;2022-08-03T07:43:11;2.70;;;2.50;;
12758;SDS011;20944;47.048;15.390;2022-08-03T07:45:39;2.47;;;2.28;;
12758;SDS011;20944;47.048;15.390;2022-08-03T07:48:08;1.92;;;1.83;;
12758;SDS011;20944;47.048;15.390;2022-08-03T07:50:39;2.40;;;2.30;;
12758;SDS011;20944;47.048;15.390;2022-08-03T07:53:07;3.65;;;2.50;;
12758;SDS011;20944;47.048;15.390;2022-08-03T07:55:36;2.97;;;2.58;;
12758;SDS011;20944;47.048;15.390;2022-08-03T07:58:05;2.45;;;2.20;;
12758;SDS011;20944;47.048;15.390;2022-08-03T08:00:38;3.05;;;2.60;;
12758;SDS011;20944;47.048;15.390;2022-08-03T08:03:06;2.50;;;2.40;;
12758;SDS011;20944;47.048;15.390;2022-08-03T08:05:35;2.50;;;2.30;;
12758;SDS011;20944;47.048;15.390;2022-08-03T08:08:05;3.08;;;2.33;;
12758;SDS011;20944;47.048;15.390;2022-08-03T08:10:34;3.45;;;2.70;;
12758;SDS011;20944;47.048;15.390;2022-08-03T08:13:02;2.65;;;2.42;;
12758;SDS011;20944;47.048;15.390;2022-08-03T08:15:31;2.60;;;2.40;;
12758;SDS011;20944;47.048;15.390;2022-08-03T08:17:59;2.67;;;2.45;;
12758;SDS011;20944;47.048;15.390;2022-08-03T08:20:29;2.60;;;2.40;;
12758;SDS011;20944;47.048;15.390;2022-08-03T08:23:04;3.30;;;2.60;;
12758;SDS011;20944;47.048;15.390;2022-08-03T08:25:55;4.25;;;1.85;;
12758;SDS011;20944;47.048;15.390;2022-08-03T08:28:23;2.92;;;2.17;;
12758;SDS011;20944;47.048;15.390;2022-08-03T08:30:58;2.65;;;2.35;;
12758;SDS011;20944;47.048;15.390;2022-08-03T08:33:27;2.03;;;1.92;;
12758;SDS011;20944;47.048;15.390;2022-08-03T08:36:15;4.30;;;2.28;;
12758;SDS011;20944;47.048;15.390;2022-08-03T08:38:45;2.28;;;2.17;;
12758;SDS011;20944;47.048;15.390;2022-08-03T08:41:13;2.40;;;2.30;;
12758;SDS011;20944;47.048;15.390;2022-08-03T08:43:42;2.20;;;2.00;;
12758;SDS011;20944;47.048;15.390;2022-08-03T08:46:11;2.30;;;2.00;;
12758;SDS011;20944;47.048;15.390;2022-08-03T08:48:50;2.47;;;2.10;;
12758;SDS011;20944;47.048;15.390;2022-08-03T08:51:19;2.42;;;2.15;;
12758;SDS011;20944;47.048;15.390;2022-08-03T08:54:10;2.17;;;1.98;;
12758;SDS011;20944;47.048;15.390;2022-08-03T08:56:39;2.00;;;1.90;;
12758;SDS011;20944;47.048;15.390;2022-08-03T08:59:08;2.25;;;2.10;;
12758;SDS011;20944;47.048;15.390;2022-08-03T09:01:36;1.92;;;1.83;;
12758;SDS011;20944;47.048;15.390;2022-08-03T09:04:05;2.05;;;1.95;;
12758;SDS011;20944;47.048;15.390;2022-08-03T09:06:34;2.20;;;2.10;;
12758;SDS011;20944;47.048;15.390;2022-08-03T09:09:05;2.35;;;1.88;;
12758;SDS011;20944;47.048;15.390;2022-08-03T09:11:56;1.90;;;1.80;;
12758;SDS011;20944;47.048;15.390;2022-08-03T09:14:44;2.55;;;1.88;;
12758;SDS011;20944;47.048;15.390;2022-08-03T09:17:38;1.75;;;1.63;;
12758;SDS011;20944;47.048;15.390;2022-08-03T09:20:07;2.45;;;1.65;;
12758;SDS011;20944;47.048;15.390;2022-08-03T09:22:43;1.67;;;1.58;;
12758;SDS011;20944;47.048;15.390;2022-08-03T09:25:21;2.97;;;1.40;;
12758;SDS011;20944;47.048;15.390;2022-08-03T09:27:55;1.65;;;1.63;;
12758;SDS011;20944;47.048;15.390;2022-08-03T09:30:32;3.22;;;1.83;;
12758;SDS011;20944;47.048;15.390;2022-08-03T09:33:01;1.30;;;1.30;;
12758;SDS011;20944;47.048;15.390;2022-08-03T09:35:31;2.15;;;1.60;;
12758;SDS011;20944;47.048;15.390;2022-08-03T09:38:21;1.38;;;1.38;;
12758;SDS011;20944;47.048;15.390;2022-08-03T09:40:52;1.85;;;1.75;;
12758;SDS011;20944;47.048;15.390;2022-08-03T09:43:27;1.90;;;1.80;;
12758;SDS011;20944;47.048;15.390;2022-08-03T09:46:01;1.80;;;1.70;;
12758;SDS011;20944;47.048;15.390;2022-08-03T09:48:30;1.60;;;1.50;;
12758;SDS011;20944;47.048;15.390;2022-08-03T09:51:01;1.92;;;1.83;;
12758;SDS011;20944;47.048;15.390;2022-08-03T09:53:50;2.08;;;1.98;;
12758;SDS011;20944;47.048;15.390;2022-08-03T09:56:36;2.03;;;1.83;;
12758;SDS011;20944;47.048;15.390;2022-08-03T09:59:10;2.17;;;1.90;;
12758;SDS011;20944;47.048;15.390;2022-08-03T10:01:39;2.10;;;2.00;;
12758;SDS011;20944;47.048;15.390;2022-08-03T10:04:11;2.22;;;2.10;;
12758;SDS011;20944;47.048;15.390;2022-08-03T10:06:43;1.70;;;1.60;;
12758;SDS011;20944;47.048;15.390;2022-08-03T10:09:13;2.38;;;1.55;;
12758;SDS011;20944;47.048;15.390;2022-08-03T10:11:42;1.58;;;1.50;;
12758;SDS011;20944;47.048;15.390;2022-08-03T10:14:13;2.63;;;1.85;;
12758;SDS011;20944;47.048;15.390;2022-08-03T10:16:45;1.73;;;1.63;;
12758;SDS011;20944;47.048;15.390;2022-08-03T10:19:15;1.60;;;1.50;;
12758;SDS011;20944;47.048;15.390;2022-08-03T10:21:45;1.85;;;1.58;;
12758;SDS011;20944;47.048;15.390;2022-08-03T10:24:19;1.20;;;1.20;;
12758;SDS011;20944;47.048;15.390;2022-08-03T10:26:52;1.40;;;1.40;;
12758;SDS011;20944;47.048;15.390;2022-08-03T10:29:29;2.00;;;1.80;;
12758;SDS011;20944;47.048;15.390;2022-08-03T10:32:05;1.80;;;1.50;;
12758;SDS011;20944;47.048;15.390;2022-08-03T10:34:41;1.35;;;1.17;;
12758;SDS011;20944;47.048;15.390;2022-08-03T10:37:11;1.20;;;1.20;;
12758;SDS011;20944;47.048;15.390;2022-08-03T10:39:43;1.45;;;1.45;;
12758;SDS011;20944;47.048;15.390;2022-08-03T10:42:20;1.48;;;1.40;;
12758;SDS011;20944;47.048;15.390;2022-08-03T10:44:55;1.63;;;1.20;;
12758;SDS011;20944;47.048;15.390;2022-08-03T10:47:31;1.60;;;1.50;;
12758;SDS011;20944;47.048;15.390;2022-08-03T10:50:01;1.40;;;1.40;;
12758;SDS011;20944;47.048;15.390;2022-08-03T10:52:30;1.80;;;1.70;;
12758;SDS011;20944;47.048;15.390;2022-08-03T11:04:25;1.33;;;0.90;;
12758;SDS011;20944;47.048;15.390;2022-08-03T11:09:47;1.88;;;1.20;;
12758;SDS011;20944;47.048;15.390;2022-08-03T11:12:20;1.02;;;1.02;;
12758;SDS011;20944;47.048;15.390;2022-08-03T11:14:58;1.40;;;1.40;;
12758;SDS011;20944;47.048;15.390;2022-08-03T11:17:29;1.85;;;1.25;;
12758;SDS011;20944;47.048;15.390;2022-08-03T11:19:58;1.02;;;1.02;;
12758;SDS011;20944;47.048;15.390;2022-08-03T11:22:46;1.17;;;1.17;;
12758;SDS011;20944;47.048;15.390;2022-08-03T11:25:16;3.40;;;1.50;;
12758;SDS011;20944;47.048;15.390;2022-08-03T11:30:53;1.30;;;1.30;;
12758;SDS011;20944;47.048;15.390;2022-08-03T11:33:29;1.02;;;1.02;;
12758;SDS011;20944;47.048;15.390;2022-08-03T11:35:58;0.88;;;0.88;;
12758;SDS011;20944;47.048;15.390;2022-08-03T11:38:28;1.20;;;1.20;;
12758;SDS011;20944;47.048;15.390;2022-08-03T11:40:56;0.90;;;0.90;;
12758;SDS011;20944;47.048;15.390;2022-08-03T11:43:43;1.20;;;1.20;;
12758;SDS011;20944;47.048;15.390;2022-08-03T11:46:12;2.60;;;1.00;;
12758;SDS011;20944;47.048;15.390;2022-08-03T11:49:01;0.90;;;0.90;;
12758;SDS011;20944;47.048;15.390;2022-08-03T11:51:35;1.02;;;1.02;;
12758;SDS011;20944;47.048;15.390;2022-08-03T11:54:06;0.75;;;0.75;;
12758;SDS011;20944;47.048;15.390;2022-08-03T11:56:44;1.10;;;1.10;;
12758;SDS011;20944;47.048;15.390;2022-08-03T11:59:13;1.35;;;1.23;;
12758;SDS011;20944;47.048;15.390;2022-08-03T12:01:47;1.33;;;1.33;;
12758;SDS011;20944;47.048;15.390;2022-08-03T12:04:17;1.05;;;1.05;;
12758;SDS011;20944;47.048;15.390;2022-08-03T12:06:58;1.20;;;1.17;;
12758;SDS011;20944;47.048;15.390;2022-08-03T12:09:27;1.27;;;1.27;;
12758;SDS011;20944;47.048;15.390;2022-08-03T12:11:55;1.67;;;1.20;;
12758;SDS011;20944;47.048;15.390;2022-08-03T12:14:26;1.63;;;1.38;;
12758;SDS011;20944;47.048;15.390;2022-08-03T12:17:15;1.23;;;1.23;;
12758;SDS011;20944;47.048;15.390;2022-08-03T12:19:46;1.30;;;1.30;;
12758;SDS011;20944;47.048;15.390;2022-08-03T12:22:14;1.38;;;1.27;;
12758;SDS011;20944;47.048;15.390;2022-08-03T12:24:43;1.13;;;1.13;;
12758;SDS011;20944;47.048;15.390;2022-08-03T12:27:21;1.10;;;1.10;;
12758;SDS011;20944;47.048;15.390;2022-08-03T12:29:52;1.30;;;1.30;;
12758;SDS011;20944;47.048;15.390;2022-08-03T12:32:24;1.40;;;1.30;;
12758;SDS011;20944;47.048;15.390;2022-08-03T12:34:54;1.20;;;1.20;;
12758;SDS011;20944;47.048;15.390;2022-08-03T12:37:27;2.45;;;1.15;;
12758;SDS011;20944;47.048;15.390;2022-08-03T12:39:57;1.30;;;1.30;;
12758;SDS011;20944;47.048;15.390;2022-08-03T12:42:37;1.20;;;1.15;;
12758;SDS011;20944;47.048;15.390;2022-08-03T12:45:22;1.10;;;1.10;;
12758;SDS011;20944;47.048;15.390;2022-08-03T12:47:52;1.20;;;1.10;;
12758;SDS011;20944;47.048;15.390;2022-08-03T12:50:29;1.30;;;1.30;;
12758;SDS011;20944;47.048;15.390;2022-08-03T12:52:58;2.40;;;1.35;;
12758;SDS011;20944;47.048;15.390;2022-08-03T12:55:27;1.48;;;1.48;;
12758;SDS011;20944;47.048;15.390;2022-08-03T12:58:29;1.67;;;1.58;;
12758;SDS011;20944;47.048;15.390;2022-08-03T13:01:02;4.38;;;1.02;;
12758;SDS011;20944;47.048;15.390;2022-08-03T13:03:38;1.73;;;1.63;;
12758;SDS011;20944;47.048;15.390;2022-08-03T13:06:13;1.27;;;1.27;;
12758;SDS011;20944;47.048;15.390;2022-08-03T13:08:43;1.95;;;1.27;;
12758;SDS011;20944;47.048;15.390;2022-08-03T13:11:17;1.27;;;1.27;;
12758;SDS011;20944;47.048;15.390;2022-08-03T13:14:09;1.65;;;1.33;;
12758;SDS011;20944;47.048;15.390;2022-08-03T13:16:45;2.83;;;1.48;;
12758;SDS011;20944;47.048;15.390;2022-08-03T13:19:13;2.50;;;1.52;;
12758;SDS011;20944;47.048;15.390;2022-08-03T13:21:43;1.13;;;1.13;;
12758;SDS011;20944;47.048;15.390;2022-08-03T13:24:28;1.17;;;1.17;;
12758;SDS011;20944;47.048;15.390;2022-08-03T13:26:57;1.30;;;1.20;;
12758;SDS011;20944;47.048;15.390;2022-08-03T13:29:25;1.25;;;1.15;;
12758;SDS011;20944;47.048;15.390;2022-08-03T13:31:54;1.20;;;1.20;;
12758;SDS011;20944;47.048;15.390;2022-08-03T13:34:22;1.23;;;1.23;;
12758;SDS011;20944;47.048;15.390;2022-08-03T13:36:52;1.17;;;1.17;;
12758;SDS011;20944;47.048;15.390;2022-08-03T13:39:36;1.30;;;1.20;;
12758;SDS011;20944;47.048;15.390;2022-08-03T13:42:25;1.00;;;1.00;;
12758;SDS011;20944;47.048;15.390;2022-08-03T13:44:54;1.63;;;1.50;;
12758;SDS011;20944;47.048;15.390;2022-08-03T13:47:23;1.35;;;1.35;;
12758;SDS011;20944;47.048;15.390;2022-08-03T13:49:51;1.40;;;1.30;;
12758;SDS011;20944;47.048;15.390;2022-08-03T13:52:33;1.48;;;1.40;;
12758;SDS011;20944;47.048;15.390;2022-08-03T13:55:02;1.50;;;1.45;;
12758;SDS011;20944;47.048;15.390;2022-08-03T13:57:32;1.13;;;1.13;;
12758;SDS011;20944;47.048;15.390;2022-08-03T14:00:21;4.07;;;1.73;;
12758;SDS011;20944;47.048;15.390;2022-08-03T14:02:55;2.42;;;1.60;;
12758;SDS011;20944;47.048;15.390;2022-08-03T14:05:32;4.93;;;1.48;;
12758;SDS011;20944;47.048;15.390;2022-08-03T14:08:02;1.10;;;1.10;;
12758;SDS011;20944;47.048;15.390;2022-08-03T14:10:32;1.63;;;1.52;;
12758;SDS011;20944;47.048;15.390;2022-08-03T14:13:02;1.40;;;1.40;;
12758;SDS011;20944;47.048;15.390;2022-08-03T14:15:30;1.60;;;1.50;;
12758;SDS011;20944;47.048;15.390;2022-08-03T14:18:04;1.23;;;1.23;;
12758;SDS011;20944;47.048;15.390;2022-08-03T14:20:41;1.45;;;1.35;;
12758;SDS011;20944;47.048;15.390;2022-08-03T14:23:17;2.17;;;1.50;;
12758;SDS011;20944;47.048;15.390;2022-08-03T14:25:47;1.70;;;1.23;;
12758;SDS011;20944;47.048;15.390;2022-08-03T14:28:18;1.30;;;1.30;;
12758;SDS011;20944;47.048;15.390;2022-08-03T14:30:49;1.45;;;1.40;;
12758;SDS011;20944;47.048;15.390;2022-08-03T14:33:17;2.22;;;1.60;;
12758;SDS011;20944;47.048;15.390;2022-08-03T14:35:46;1.40;;;1.40;;
12758;SDS011;20944;47.048;15.390;2022-08-03T14:38:16;1.52;;;1.42;;
12758;SDS011;20944;47.048;15.390;2022-08-03T14:43:13;1.30;;;1.30;;
12758;SDS011;20944;47.048;15.390;2022-08-03T14:45:43;1.60;;;1.50;;
12758;SDS011;20944;47.048;15.390;2022-08-03T14:48:11;1.50;;;1.40;;
12758;SDS011;20944;47.048;15.390;2022-08-03T14:51:00;1.40;;;1.40;;
12758;SDS011;20944;47.048;15.390;2022-08-03T14:53:30;1.42;;;1.42;;
12758;SDS011;20944;47.048;15.390;2022-08-03T14:58:29;1.48;;;1.42;;
12758;SDS011;20944;47.048;15.390;2022-08-03T15:00:57;1.35;;;1.35;;
12758;SDS011;20944;47.048;15.390;2022-08-03T15:03:25;1.70;;;1.60;;
12758;SDS011;20944;47.048;15.390;2022-08-03T15:05:54;3.25;;;1.20;;
12758;SDS011;20944;47.048;15.390;2022-08-03T15:08:23;1.58;;;1.50;;
12758;SDS011;20944;47.048;15.390;2022-08-03T15:10:54;1.75;;;1.70;;
12758;SDS011;20944;47.048;15.390;2022-08-03T15:13:23;1.48;;;1.45;;
12758;SDS011;20944;47.048;15.390;2022-08-03T15:15:52;1.55;;;1.50;;
12758;SDS011;20944;47.048;15.390;2022-08-03T15:18:21;1.20;;;1.10;;
12758;SDS011;20944;47.048;15.390;2022-08-03T15:20:49;4.53;;;1.27;;
12758;SDS011;20944;47.048;15.390;2022-08-03T16:52:12;2.40;;;1.45;;
12758;SDS011;20944;47.048;15.390;2022-08-03T16:54:43;1.90;;;1.60;;
12758;SDS011;20944;47.048;15.390;2022-08-03T16:57:19;1.35;;;1.35;;
12758;SDS011;20944;47.048;15.390;2022-08-03T17:00:09;1.13;;;1.13;;
12758;SDS011;20944;47.048;15.390;2022-08-03T17:02:59;1.73;;;1.73;;
12758;SDS011;20944;47.048;15.390;2022-08-03T17:05:31;3.85;;;1.42;;
12758;SDS011;20944;47.048;15.390;2022-08-03T17:08:13;1.27;;;1.05;;
12758;SDS011;20944;47.048;15.390;2022-08-03T17:10:51;1.60;;;1.60;;
12758;SDS011;20944;47.048;15.390;2022-08-03T17:16:04;1.70;;;1.60;;
12758;SDS011;20944;47.048;15.390;2022-08-03T17:18:36;2.05;;;1.40;;
12758;SDS011;20944;47.048;15.390;2022-08-03T17:21:14;1.48;;;1.38;;
12758;SDS011;20944;47.048;15.390;2022-08-03T17:23:52;1.40;;;1.30;;
12758;SDS011;20944;47.048;15.390;2022-08-03T17:26:24;1.50;;;1.45;;
12758;SDS011;20944;47.048;15.390;2022-08-03T17:28:57;1.85;;;1.75;;
12758;SDS011;20944;47.048;15.390;2022-08-03T17:31:38;1.27;;;1.27;;
12758;SDS011;20944;47.048;15.390;2022-08-03T17:39:31;1.50;;;1.40;;
12758;SDS011;20944;47.048;15.390;2022-08-03T19:22:47;1.95;;;1.80;;
12758;SDS011;20944;47.048;15.390;2022-08-03T22:12:19;1.60;;;1.50;;
